sensor_id;sensor_type;location;lat;lon;timestamp;P1;durP1;ratioP1;P2;durP2;ratioP2
27722;SDS011;15123;-37.794;175.246;2023-05-07T00:02:15;3.95;;;0.80;;
27722;SDS011;15123;-37.794;175.246;2023-05-07T00:04:46;4.85;;;0.88;;
27722;SDS011;15123;-37.794;175.246;2023-05-07T00:09:49;4.90;;;0.70;;
27722;SDS011;15123;-37.794;175.246;2023-05-07T00:12:20;9.25;;;1.33;;
27722;SDS011;15123;-37.794;175.246;2023-05-07T00:14:51;5.43;;;0.73;;
27722;SDS011;15123;-37.794;175.246;2023-05-07T00:17:23;5.88;;;0.80;;
27722;SDS011;15123;-37.794;175.246;2023-05-07T00:19:54;7.20;;;0.77;;
27722;SDS011;15123;-37.794;175.246;2023-05-07T00:22:26;10.75;;;0.90;;
27722;SDS011;15123;-37.794;175.246;2023-05-07T00:24:58;6.53;;;1.00;;
27722;SDS011;15123;-37.794;175.246;2023-05-07T00:27:32;8.32;;;1.10;;
27722;SDS011;15123;-37.794;175.246;2023-05-07T00:30:04;7.38;;;1.00;;
27722;SDS011;15123;-37.794;175.246;2023-05-07T00:32:36;8.68;;;1.00;;
27722;SDS011;15123;-37.794;175.246;2023-05-07T00:35:08;8.20;;;1.00;;
27722;SDS011;15123;-37.794;175.246;2023-05-07T00:37:40;8.20;;;1.15;;
27722;SDS011;15123;-37.794;175.246;2023-05-07T00:40:11;7.43;;;1.02;;
27722;SDS011;15123;-37.794;175.246;2023-05-07T00:42:42;5.88;;;0.90;;
27722;SDS011;15123;-37.794;175.246;2023-05-07T00:45:17;9.25;;;1.33;;
27722;SDS011;15123;-37.794;175.246;2023-05-07T00:47:48;8.63;;;1.00;;
27722;SDS011;15123;-37.794;175.246;2023-05-07T00:52:51;9.48;;;1.25;;
27722;SDS011;15123;-37.794;175.246;2023-05-07T00:57:53;10.95;;;1.20;;
27722;SDS011;15123;-37.794;175.246;2023-05-07T01:00:24;11.25;;;1.33;;
27722;SDS011;15123;-37.794;175.246;2023-05-07T01:05:28;12.23;;;1.40;;
27722;SDS011;15123;-37.794;175.246;2023-05-07T01:08:01;13.55;;;1.70;;
27722;SDS011;15123;-37.794;175.246;2023-05-07T01:10:33;12.10;;;1.50;;
27722;SDS011;15123;-37.794;175.246;2023-05-07T01:13:05;9.63;;;1.50;;
27722;SDS011;15123;-37.794;175.246;2023-05-07T01:15:37;13.77;;;1.60;;
27722;SDS011;15123;-37.794;175.246;2023-05-07T01:18:11;10.57;;;1.30;;
27722;SDS011;15123;-37.794;175.246;2023-05-07T01:20:43;9.07;;;1.20;;
27722;SDS011;15123;-37.794;175.246;2023-05-07T01:23:15;13.52;;;1.40;;
27722;SDS011;15123;-37.794;175.246;2023-05-07T01:25:53;10.80;;;1.60;;
27722;SDS011;15123;-37.794;175.246;2023-05-07T01:28:27;12.88;;;1.85;;
27722;SDS011;15123;-37.794;175.246;2023-05-07T01:31:00;10.20;;;1.65;;
27722;SDS011;15123;-37.794;175.246;2023-05-07T01:33:34;13.75;;;1.73;;
27722;SDS011;15123;-37.794;175.246;2023-05-07T01:36:07;12.15;;;1.70;;
27722;SDS011;15123;-37.794;175.246;2023-05-07T01:38:40;15.50;;;1.90;;
27722;SDS011;15123;-37.794;175.246;2023-05-07T01:41:12;13.50;;;1.80;;
27722;SDS011;15123;-37.794;175.246;2023-05-07T01:43:43;14.75;;;2.42;;
27722;SDS011;15123;-37.794;175.246;2023-05-07T01:46:15;15.48;;;2.10;;
27722;SDS011;15123;-37.794;175.246;2023-05-07T01:48:47;14.20;;;1.85;;
27722;SDS011;15123;-37.794;175.246;2023-05-07T01:51:19;11.57;;;1.80;;
27722;SDS011;15123;-37.794;175.246;2023-05-07T01:53:52;17.20;;;1.83;;
27722;SDS011;15123;-37.794;175.246;2023-05-07T01:56:24;18.50;;;1.65;;
27722;SDS011;15123;-37.794;175.246;2023-05-07T01:58:56;16.85;;;1.83;;
27722;SDS011;15123;-37.794;175.246;2023-05-07T02:01:29;17.30;;;2.53;;
27722;SDS011;15123;-37.794;175.246;2023-05-07T02:04:03;15.27;;;1.92;;
27722;SDS011;15123;-37.794;175.246;2023-05-07T02:06:35;12.98;;;1.67;;
27722;SDS011;15123;-37.794;175.246;2023-05-07T02:09:08;13.98;;;2.08;;
27722;SDS011;15123;-37.794;175.246;2023-05-07T02:11:43;17.02;;;2.10;;
27722;SDS011;15123;-37.794;175.246;2023-05-07T02:14:17;16.02;;;1.75;;
27722;SDS011;15123;-37.794;175.246;2023-05-07T02:16:50;14.23;;;1.50;;
27722;SDS011;15123;-37.794;175.246;2023-05-07T02:19:22;12.07;;;1.40;;
27722;SDS011;15123;-37.794;175.246;2023-05-07T02:21:54;11.00;;;1.38;;
27722;SDS011;15123;-37.794;175.246;2023-05-07T02:24:29;14.52;;;1.90;;
27722;SDS011;15123;-37.794;175.246;2023-05-07T02:29:33;13.98;;;1.70;;
27722;SDS011;15123;-37.794;175.246;2023-05-07T02:32:04;15.85;;;2.08;;
27722;SDS011;15123;-37.794;175.246;2023-05-07T02:34:36;16.63;;;1.95;;
27722;SDS011;15123;-37.794;175.246;2023-05-07T02:37:08;13.93;;;2.13;;
27722;SDS011;15123;-37.794;175.246;2023-05-07T02:42:10;12.93;;;1.58;;
27722;SDS011;15123;-37.794;175.246;2023-05-07T02:44:41;14.25;;;1.88;;
27722;SDS011;15123;-37.794;175.246;2023-05-07T02:47:14;16.90;;;1.75;;
27722;SDS011;15123;-37.794;175.246;2023-05-07T02:49:46;16.35;;;2.00;;
27722;SDS011;15123;-37.794;175.246;2023-05-07T02:52:18;17.58;;;2.45;;
27722;SDS011;15123;-37.794;175.246;2023-05-07T02:57:20;14.00;;;1.70;;
27722;SDS011;15123;-37.794;175.246;2023-05-07T02:59:52;14.35;;;2.03;;
27722;SDS011;15123;-37.794;175.246;2023-05-07T03:02:23;14.88;;;2.17;;
27722;SDS011;15123;-37.794;175.246;2023-05-07T03:04:55;14.88;;;1.83;;
27722;SDS011;15123;-37.794;175.246;2023-05-07T03:07:28;17.23;;;2.00;;
27722;SDS011;15123;-37.794;175.246;2023-05-07T03:10:00;16.58;;;2.08;;
27722;SDS011;15123;-37.794;175.246;2023-05-07T03:12:32;14.88;;;1.80;;
27722;SDS011;15123;-37.794;175.246;2023-05-07T03:15:04;11.73;;;2.13;;
27722;SDS011;15123;-37.794;175.246;2023-05-07T03:17:38;15.88;;;2.15;;
27722;SDS011;15123;-37.794;175.246;2023-05-07T03:20:11;12.48;;;1.50;;
27722;SDS011;15123;-37.794;175.246;2023-05-07T03:22:43;8.88;;;1.60;;
27722;SDS011;15123;-37.794;175.246;2023-05-07T03:27:46;14.38;;;1.50;;
27722;SDS011;15123;-37.794;175.246;2023-05-07T03:30:20;12.35;;;2.00;;
27722;SDS011;15123;-37.794;175.246;2023-05-07T03:35:23;12.70;;;1.65;;
27722;SDS011;15123;-37.794;175.246;2023-05-07T03:37:54;14.30;;;1.52;;
27722;SDS011;15123;-37.794;175.246;2023-05-07T03:40:28;12.35;;;1.60;;
27722;SDS011;15123;-37.794;175.246;2023-05-07T03:45:32;12.82;;;1.48;;
27722;SDS011;15123;-37.794;175.246;2023-05-07T03:48:14;10.35;;;1.48;;
27722;SDS011;15123;-37.794;175.246;2023-05-07T03:50:46;13.05;;;1.65;;
27722;SDS011;15123;-37.794;175.246;2023-05-07T03:53:19;9.32;;;1.55;;
27722;SDS011;15123;-37.794;175.246;2023-05-07T03:55:51;9.45;;;1.40;;
27722;SDS011;15123;-37.794;175.246;2023-05-07T03:58:22;10.90;;;1.40;;
27722;SDS011;15123;-37.794;175.246;2023-05-07T04:00:57;10.55;;;1.88;;
27722;SDS011;15123;-37.794;175.246;2023-05-07T04:03:29;11.52;;;1.80;;
27722;SDS011;15123;-37.794;175.246;2023-05-07T04:06:01;13.05;;;2.15;;
27722;SDS011;15123;-37.794;175.246;2023-05-07T04:08:35;15.73;;;2.28;;
27722;SDS011;15123;-37.794;175.246;2023-05-07T04:11:07;10.02;;;1.40;;
27722;SDS011;15123;-37.794;175.246;2023-05-07T04:16:10;10.77;;;1.63;;
27722;SDS011;15123;-37.794;175.246;2023-05-07T04:18:41;11.05;;;1.30;;
27722;SDS011;15123;-37.794;175.246;2023-05-07T04:21:18;12.52;;;1.55;;
27722;SDS011;15123;-37.794;175.246;2023-05-07T04:23:51;9.27;;;1.17;;
27722;SDS011;15123;-37.794;175.246;2023-05-07T04:26:23;10.85;;;1.27;;
27722;SDS011;15123;-37.794;175.246;2023-05-07T04:31:31;10.48;;;1.13;;
27722;SDS011;15123;-37.794;175.246;2023-05-07T04:34:02;13.30;;;1.85;;
27722;SDS011;15123;-37.794;175.246;2023-05-07T04:36:33;9.93;;;1.50;;
27722;SDS011;15123;-37.794;175.246;2023-05-07T04:39:10;10.95;;;1.60;;
27722;SDS011;15123;-37.794;175.246;2023-05-07T04:41:44;9.82;;;1.20;;
27722;SDS011;15123;-37.794;175.246;2023-05-07T04:46:48;9.75;;;1.45;;
27722;SDS011;15123;-37.794;175.246;2023-05-07T04:49:20;11.35;;;1.40;;
27722;SDS011;15123;-37.794;175.246;2023-05-07T04:51:54;12.95;;;1.80;;
27722;SDS011;15123;-37.794;175.246;2023-05-07T04:54:25;10.77;;;1.58;;
27722;SDS011;15123;-37.794;175.246;2023-05-07T04:56:56;14.90;;;1.98;;
27722;SDS011;15123;-37.794;175.246;2023-05-07T04:59:28;13.68;;;2.00;;
27722;SDS011;15123;-37.794;175.246;2023-05-07T05:02:00;15.60;;;2.03;;
27722;SDS011;15123;-37.794;175.246;2023-05-07T05:04:32;10.30;;;1.95;;
27722;SDS011;15123;-37.794;175.246;2023-05-07T05:07:04;13.15;;;1.80;;
27722;SDS011;15123;-37.794;175.246;2023-05-07T05:09:36;13.82;;;1.63;;
27722;SDS011;15123;-37.794;175.246;2023-05-07T05:12:08;10.15;;;1.50;;
27722;SDS011;15123;-37.794;175.246;2023-05-07T05:17:11;11.67;;;1.50;;
27722;SDS011;15123;-37.794;175.246;2023-05-07T05:19:43;13.70;;;1.52;;
27722;SDS011;15123;-37.794;175.246;2023-05-07T05:22:15;13.63;;;1.90;;
27722;SDS011;15123;-37.794;175.246;2023-05-07T05:24:47;12.23;;;1.50;;
27722;SDS011;15123;-37.794;175.246;2023-05-07T05:27:18;11.88;;;1.75;;
27722;SDS011;15123;-37.794;175.246;2023-05-07T05:29:50;11.43;;;1.38;;
27722;SDS011;15123;-37.794;175.246;2023-05-07T05:32:22;13.65;;;1.52;;
27722;SDS011;15123;-37.794;175.246;2023-05-07T05:34:56;11.40;;;1.35;;
27722;SDS011;15123;-37.794;175.246;2023-05-07T05:37:29;10.52;;;1.35;;
27722;SDS011;15123;-37.794;175.246;2023-05-07T05:40:03;9.70;;;1.40;;
27722;SDS011;15123;-37.794;175.246;2023-05-07T05:42:35;9.77;;;1.88;;
27722;SDS011;15123;-37.794;175.246;2023-05-07T05:45:07;11.35;;;2.30;;
27722;SDS011;15123;-37.794;175.246;2023-05-07T05:47:40;8.48;;;2.10;;
27722;SDS011;15123;-37.794;175.246;2023-05-07T05:50:12;10.15;;;1.80;;
27722;SDS011;15123;-37.794;175.246;2023-05-07T05:52:43;7.82;;;1.40;;
27722;SDS011;15123;-37.794;175.246;2023-05-07T05:55:15;10.07;;;1.27;;
27722;SDS011;15123;-37.794;175.246;2023-05-07T05:57:47;8.02;;;1.40;;
27722;SDS011;15123;-37.794;175.246;2023-05-07T06:00:22;10.05;;;1.45;;
27722;SDS011;15123;-37.794;175.246;2023-05-07T06:03:01;7.30;;;1.20;;
27722;SDS011;15123;-37.794;175.246;2023-05-07T06:05:34;8.57;;;1.20;;
27722;SDS011;15123;-37.794;175.246;2023-05-07T06:10:37;9.35;;;1.65;;
27722;SDS011;15123;-37.794;175.246;2023-05-07T06:13:08;6.55;;;0.90;;
27722;SDS011;15123;-37.794;175.246;2023-05-07T06:15:41;6.03;;;1.00;;
27722;SDS011;15123;-37.794;175.246;2023-05-07T06:18:13;6.32;;;1.02;;
27722;SDS011;15123;-37.794;175.246;2023-05-07T06:20:45;7.32;;;1.00;;
27722;SDS011;15123;-37.794;175.246;2023-05-07T06:23:24;9.95;;;1.40;;
27722;SDS011;15123;-37.794;175.246;2023-05-07T06:25:56;8.63;;;1.20;;
27722;SDS011;15123;-37.794;175.246;2023-05-07T06:28:35;10.88;;;1.42;;
27722;SDS011;15123;-37.794;175.246;2023-05-07T06:31:11;11.45;;;1.80;;
27722;SDS011;15123;-37.794;175.246;2023-05-07T06:33:49;8.63;;;2.17;;
27722;SDS011;15123;-37.794;175.246;2023-05-07T06:36:25;9.55;;;1.40;;
27722;SDS011;15123;-37.794;175.246;2023-05-07T06:38:58;7.78;;;1.83;;
27722;SDS011;15123;-37.794;175.246;2023-05-07T06:41:30;9.20;;;1.83;;
27722;SDS011;15123;-37.794;175.246;2023-05-07T06:44:07;8.38;;;1.48;;
27722;SDS011;15123;-37.794;175.246;2023-05-07T06:46:48;6.47;;;0.90;;
27722;SDS011;15123;-37.794;175.246;2023-05-07T06:49:19;5.32;;;0.90;;
27722;SDS011;15123;-37.794;175.246;2023-05-07T06:51:51;5.70;;;0.85;;
27722;SDS011;15123;-37.794;175.246;2023-05-07T06:54:23;6.03;;;1.00;;
27722;SDS011;15123;-37.794;175.246;2023-05-07T06:56:54;3.80;;;0.80;;
27722;SDS011;15123;-37.794;175.246;2023-05-07T06:59:27;5.22;;;0.80;;
27722;SDS011;15123;-37.794;175.246;2023-05-07T07:01:59;7.40;;;1.40;;
27722;SDS011;15123;-37.794;175.246;2023-05-07T07:04:31;6.93;;;1.23;;
27722;SDS011;15123;-37.794;175.246;2023-05-07T07:07:06;6.80;;;1.00;;
27722;SDS011;15123;-37.794;175.246;2023-05-07T07:09:39;4.18;;;0.90;;
27722;SDS011;15123;-37.794;175.246;2023-05-07T07:12:11;3.58;;;0.90;;
27722;SDS011;15123;-37.794;175.246;2023-05-07T07:14:43;6.22;;;0.88;;
27722;SDS011;15123;-37.794;175.246;2023-05-07T07:17:15;7.95;;;2.95;;
27722;SDS011;15123;-37.794;175.246;2023-05-07T07:19:46;5.38;;;3.75;;
27722;SDS011;15123;-37.794;175.246;2023-05-07T07:22:18;18.90;;;15.43;;
27722;SDS011;15123;-37.794;175.246;2023-05-07T07:24:50;5.00;;;1.08;;
27722;SDS011;15123;-37.794;175.246;2023-05-07T07:27:23;5.22;;;0.80;;
27722;SDS011;15123;-37.794;175.246;2023-05-07T07:29:57;4.30;;;1.08;;
27722;SDS011;15123;-37.794;175.246;2023-05-07T07:32:32;5.13;;;1.48;;
27722;SDS011;15123;-37.794;175.246;2023-05-07T07:35:05;5.07;;;0.90;;
27722;SDS011;15123;-37.794;175.246;2023-05-07T07:37:38;5.50;;;0.80;;
27722;SDS011;15123;-37.794;175.246;2023-05-07T07:40:11;4.32;;;0.70;;
27722;SDS011;15123;-37.794;175.246;2023-05-07T07:42:44;5.47;;;0.80;;
27722;SDS011;15123;-37.794;175.246;2023-05-07T07:45:16;4.88;;;0.80;;
27722;SDS011;15123;-37.794;175.246;2023-05-07T07:47:52;5.60;;;1.08;;
27722;SDS011;15123;-37.794;175.246;2023-05-07T07:53:11;4.57;;;0.80;;
27722;SDS011;15123;-37.794;175.246;2023-05-07T07:55:42;4.30;;;1.17;;
27722;SDS011;15123;-37.794;175.246;2023-05-07T07:58:17;10.35;;;4.35;;
27722;SDS011;15123;-37.794;175.246;2023-05-07T08:00:48;6.38;;;1.30;;
27722;SDS011;15123;-37.794;175.246;2023-05-07T08:03:21;5.93;;;1.27;;
27722;SDS011;15123;-37.794;175.246;2023-05-07T08:05:57;7.32;;;1.10;;
27722;SDS011;15123;-37.794;175.246;2023-05-07T08:08:30;6.45;;;1.15;;
27722;SDS011;15123;-37.794;175.246;2023-05-07T08:13:35;6.75;;;1.20;;
27722;SDS011;15123;-37.794;175.246;2023-05-07T08:16:07;7.13;;;1.50;;
27722;SDS011;15123;-37.794;175.246;2023-05-07T08:18:39;8.60;;;2.15;;
27722;SDS011;15123;-37.794;175.246;2023-05-07T08:23:42;5.70;;;1.63;;
27722;SDS011;15123;-37.794;175.246;2023-05-07T08:26:15;9.00;;;1.63;;
27722;SDS011;15123;-37.794;175.246;2023-05-07T08:28:47;11.15;;;1.70;;
27722;SDS011;15123;-37.794;175.246;2023-05-07T08:31:19;7.50;;;1.40;;
27722;SDS011;15123;-37.794;175.246;2023-05-07T08:33:50;8.88;;;1.60;;
27722;SDS011;15123;-37.794;175.246;2023-05-07T08:36:21;8.13;;;1.27;;
27722;SDS011;15123;-37.794;175.246;2023-05-07T08:38:53;9.82;;;1.55;;
27722;SDS011;15123;-37.794;175.246;2023-05-07T08:41:24;8.55;;;1.70;;
27722;SDS011;15123;-37.794;175.246;2023-05-07T08:46:29;9.00;;;1.60;;
27722;SDS011;15123;-37.794;175.246;2023-05-07T08:49:03;190.20;;;84.57;;
27722;SDS011;15123;-37.794;175.246;2023-05-07T08:51:35;421.23;;;163.10;;
27722;SDS011;15123;-37.794;175.246;2023-05-07T08:54:06;283.08;;;78.60;;
27722;SDS011;15123;-37.794;175.246;2023-05-07T08:56:38;426.58;;;171.02;;
27722;SDS011;15123;-37.794;175.246;2023-05-07T08:59:10;89.22;;;32.17;;
27722;SDS011;15123;-37.794;175.246;2023-05-07T09:01:44;237.52;;;79.97;;
27722;SDS011;15123;-37.794;175.246;2023-05-07T09:04:17;289.88;;;112.68;;
27722;SDS011;15123;-37.794;175.246;2023-05-07T09:06:48;179.60;;;77.78;;
27722;SDS011;15123;-37.794;175.246;2023-05-07T09:09:22;136.75;;;61.03;;
27722;SDS011;15123;-37.794;175.246;2023-05-07T09:11:58;10.75;;;3.75;;
27722;SDS011;15123;-37.794;175.246;2023-05-07T09:14:33;9.82;;;2.53;;
27722;SDS011;15123;-37.794;175.246;2023-05-07T09:17:05;8.25;;;1.90;;
27722;SDS011;15123;-37.794;175.246;2023-05-07T09:19:37;4.65;;;1.52;;
27722;SDS011;15123;-37.794;175.246;2023-05-07T09:22:09;6.65;;;1.50;;
27722;SDS011;15123;-37.794;175.246;2023-05-07T09:24:51;8.23;;;1.50;;
27722;SDS011;15123;-37.794;175.246;2023-05-07T09:27:29;5.93;;;1.30;;
27722;SDS011;15123;-37.794;175.246;2023-05-07T09:30:08;6.25;;;1.25;;
27722;SDS011;15123;-37.794;175.246;2023-05-07T09:32:40;6.38;;;1.25;;
27722;SDS011;15123;-37.794;175.246;2023-05-07T09:35:16;9.23;;;2.45;;
27722;SDS011;15123;-37.794;175.246;2023-05-07T09:37:57;8.27;;;1.92;;
27722;SDS011;15123;-37.794;175.246;2023-05-07T09:43:11;20.88;;;8.18;;
27722;SDS011;15123;-37.794;175.246;2023-05-07T09:45:53;8.18;;;2.28;;
27722;SDS011;15123;-37.794;175.246;2023-05-07T09:48:28;8.10;;;1.38;;
27722;SDS011;15123;-37.794;175.246;2023-05-07T09:51:02;9.05;;;2.00;;
27722;SDS011;15123;-37.794;175.246;2023-05-07T09:53:37;9.43;;;1.30;;
27722;SDS011;15123;-37.794;175.246;2023-05-07T09:56:12;6.28;;;1.10;;
27722;SDS011;15123;-37.794;175.246;2023-05-07T09:58:45;8.98;;;1.20;;
27722;SDS011;15123;-37.794;175.246;2023-05-07T10:01:17;13.48;;;5.93;;
27722;SDS011;15123;-37.794;175.246;2023-05-07T10:03:51;11.55;;;3.50;;
27722;SDS011;15123;-37.794;175.246;2023-05-07T10:06:24;9.68;;;2.35;;
27722;SDS011;15123;-37.794;175.246;2023-05-07T10:08:56;8.57;;;1.25;;
27722;SDS011;15123;-37.794;175.246;2023-05-07T10:11:27;9.38;;;0.98;;
27722;SDS011;15123;-37.794;175.246;2023-05-07T10:13:58;12.88;;;2.63;;
27722;SDS011;15123;-37.794;175.246;2023-05-07T10:16:34;31.85;;;12.07;;
27722;SDS011;15123;-37.794;175.246;2023-05-07T10:19:11;60.28;;;26.98;;
27722;SDS011;15123;-37.794;175.246;2023-05-07T10:21:51;36.83;;;18.38;;
27722;SDS011;15123;-37.794;175.246;2023-05-07T10:24:31;60.10;;;29.85;;
27722;SDS011;15123;-37.794;175.246;2023-05-07T10:27:12;98.07;;;50.20;;
27722;SDS011;15123;-37.794;175.246;2023-05-07T10:29:58;8.63;;;1.63;;
27722;SDS011;15123;-37.794;175.246;2023-05-07T10:32:45;49.80;;;21.08;;
27722;SDS011;15123;-37.794;175.246;2023-05-07T10:35:29;90.22;;;37.28;;
27722;SDS011;15123;-37.794;175.246;2023-05-07T10:38:04;275.10;;;116.10;;
27722;SDS011;15123;-37.794;175.246;2023-05-07T10:40:37;171.20;;;73.93;;
27722;SDS011;15123;-37.794;175.246;2023-05-07T10:43:09;300.75;;;137.38;;
27722;SDS011;15123;-37.794;175.246;2023-05-07T10:46:08;120.15;;;52.17;;
27722;SDS011;15123;-37.794;175.246;2023-05-07T10:51:42;86.97;;;41.58;;
27722;SDS011;15123;-37.794;175.246;2023-05-07T10:54:24;65.93;;;32.35;;
27722;SDS011;15123;-37.794;175.246;2023-05-07T11:03:12;218.93;;;98.30;;
27722;SDS011;15123;-37.794;175.246;2023-05-07T11:11:49;52.50;;;26.58;;
27722;SDS011;15123;-37.794;175.246;2023-05-07T11:26:51;9.88;;;1.38;;
27722;SDS011;15123;-37.794;175.246;2023-05-07T11:29:24;7.47;;;1.40;;
27722;SDS011;15123;-37.794;175.246;2023-05-07T11:32:04;12.40;;;1.30;;
27722;SDS011;15123;-37.794;175.246;2023-05-07T11:34:45;7.78;;;1.50;;
27722;SDS011;15123;-37.794;175.246;2023-05-07T11:37:18;9.07;;;1.77;;
27722;SDS011;15123;-37.794;175.246;2023-05-07T11:40:04;8.52;;;1.17;;
27722;SDS011;15123;-37.794;175.246;2023-05-07T11:42:38;9.80;;;1.35;;
27722;SDS011;15123;-37.794;175.246;2023-05-07T11:45:12;9.05;;;1.70;;
27722;SDS011;15123;-37.794;175.246;2023-05-07T11:47:56;7.50;;;1.10;;
27722;SDS011;15123;-37.794;175.246;2023-05-07T11:50:28;8.68;;;1.23;;
27722;SDS011;15123;-37.794;175.246;2023-05-07T11:52:59;8.85;;;1.30;;
27722;SDS011;15123;-37.794;175.246;2023-05-07T11:55:31;8.38;;;1.23;;
27722;SDS011;15123;-37.794;175.246;2023-05-07T11:58:02;8.18;;;1.30;;
27722;SDS011;15123;-37.794;175.246;2023-05-07T12:00:36;11.48;;;1.50;;
27722;SDS011;15123;-37.794;175.246;2023-05-07T12:03:07;8.57;;;1.30;;
27722;SDS011;15123;-37.794;175.246;2023-05-07T12:05:39;10.90;;;1.45;;
27722;SDS011;15123;-37.794;175.246;2023-05-07T12:08:15;8.55;;;1.20;;
27722;SDS011;15123;-37.794;175.246;2023-05-07T12:10:50;12.40;;;1.58;;
27722;SDS011;15123;-37.794;175.246;2023-05-07T12:13:23;10.68;;;1.10;;
27722;SDS011;15123;-37.794;175.246;2023-05-07T12:15:55;10.20;;;1.20;;
27722;SDS011;15123;-37.794;175.246;2023-05-07T12:20:58;8.90;;;1.40;;
27722;SDS011;15123;-37.794;175.246;2023-05-07T12:23:30;9.02;;;1.30;;
27722;SDS011;15123;-37.794;175.246;2023-05-07T12:26:02;7.80;;;1.60;;
27722;SDS011;15123;-37.794;175.246;2023-05-07T12:28:36;9.68;;;1.17;;
27722;SDS011;15123;-37.794;175.246;2023-05-07T12:31:08;12.80;;;1.30;;
27722;SDS011;15123;-37.794;175.246;2023-05-07T12:33:40;8.45;;;1.20;;
27722;SDS011;15123;-37.794;175.246;2023-05-07T12:36:13;11.05;;;1.80;;
27722;SDS011;15123;-37.794;175.246;2023-05-07T12:41:16;8.70;;;1.40;;
27722;SDS011;15123;-37.794;175.246;2023-05-07T12:46:18;7.88;;;1.13;;
27722;SDS011;15123;-37.794;175.246;2023-05-07T12:48:49;10.38;;;1.38;;
27722;SDS011;15123;-37.794;175.246;2023-05-07T12:51:20;8.60;;;1.08;;
27722;SDS011;15123;-37.794;175.246;2023-05-07T12:53:52;8.23;;;1.17;;
27722;SDS011;15123;-37.794;175.246;2023-05-07T12:56:28;6.90;;;1.00;;
27722;SDS011;15123;-37.794;175.246;2023-05-07T12:59:01;8.65;;;1.30;;
27722;SDS011;15123;-37.794;175.246;2023-05-07T13:01:33;7.82;;;1.00;;
27722;SDS011;15123;-37.794;175.246;2023-05-07T13:06:36;7.47;;;1.00;;
27722;SDS011;15123;-37.794;175.246;2023-05-07T13:09:08;7.57;;;0.90;;
27722;SDS011;15123;-37.794;175.246;2023-05-07T13:14:11;10.50;;;1.60;;
27722;SDS011;15123;-37.794;175.246;2023-05-07T13:16:42;7.13;;;1.05;;
27722;SDS011;15123;-37.794;175.246;2023-05-07T13:19:14;8.60;;;1.30;;
27722;SDS011;15123;-37.794;175.246;2023-05-07T13:21:45;8.55;;;1.10;;
27722;SDS011;15123;-37.794;175.246;2023-05-07T13:26:48;7.75;;;1.20;;
27722;SDS011;15123;-37.794;175.246;2023-05-07T13:31:56;6.75;;;1.27;;
27722;SDS011;15123;-37.794;175.246;2023-05-07T13:34:28;8.93;;;1.13;;
27722;SDS011;15123;-37.794;175.246;2023-05-07T13:36:59;9.38;;;1.20;;
27722;SDS011;15123;-37.794;175.246;2023-05-07T13:39:32;7.80;;;1.00;;
27722;SDS011;15123;-37.794;175.246;2023-05-07T13:42:04;9.57;;;0.90;;
27722;SDS011;15123;-37.794;175.246;2023-05-07T13:44:35;10.25;;;1.10;;
27722;SDS011;15123;-37.794;175.246;2023-05-07T13:47:06;8.27;;;1.10;;
27722;SDS011;15123;-37.794;175.246;2023-05-07T13:49:38;10.77;;;1.27;;
27722;SDS011;15123;-37.794;175.246;2023-05-07T13:52:09;7.70;;;0.85;;
27722;SDS011;15123;-37.794;175.246;2023-05-07T13:54:40;8.93;;;1.05;;
27722;SDS011;15123;-37.794;175.246;2023-05-07T13:57:12;8.82;;;1.00;;
27722;SDS011;15123;-37.794;175.246;2023-05-07T13:59:43;9.55;;;1.00;;
27722;SDS011;15123;-37.794;175.246;2023-05-07T14:02:16;9.57;;;1.00;;
27722;SDS011;15123;-37.794;175.246;2023-05-07T14:04:47;9.25;;;1.05;;
27722;SDS011;15123;-37.794;175.246;2023-05-07T14:09:49;11.70;;;1.20;;
27722;SDS011;15123;-37.794;175.246;2023-05-07T14:12:21;7.18;;;1.20;;
27722;SDS011;15123;-37.794;175.246;2023-05-07T14:14:52;9.50;;;1.20;;
27722;SDS011;15123;-37.794;175.246;2023-05-07T14:17:24;8.15;;;1.10;;
27722;SDS011;15123;-37.794;175.246;2023-05-07T14:19:57;6.53;;;0.90;;
27722;SDS011;15123;-37.794;175.246;2023-05-07T14:22:31;6.85;;;1.10;;
27722;SDS011;15123;-37.794;175.246;2023-05-07T14:25:02;8.27;;;1.20;;
27722;SDS011;15123;-37.794;175.246;2023-05-07T14:27:34;9.98;;;1.35;;
27722;SDS011;15123;-37.794;175.246;2023-05-07T14:30:06;9.48;;;1.40;;
27722;SDS011;15123;-37.794;175.246;2023-05-07T14:32:38;10.85;;;1.48;;
27722;SDS011;15123;-37.794;175.246;2023-05-07T14:35:11;9.35;;;1.05;;
27722;SDS011;15123;-37.794;175.246;2023-05-07T14:37:43;6.75;;;1.00;;
27722;SDS011;15123;-37.794;175.246;2023-05-07T14:40:17;7.40;;;1.13;;
27722;SDS011;15123;-37.794;175.246;2023-05-07T14:45:20;8.63;;;1.33;;
27722;SDS011;15123;-37.794;175.246;2023-05-07T14:47:51;10.05;;;1.27;;
27722;SDS011;15123;-37.794;175.246;2023-05-07T14:52:57;7.53;;;1.00;;
27722;SDS011;15123;-37.794;175.246;2023-05-07T14:55:32;9.10;;;1.13;;
27722;SDS011;15123;-37.794;175.246;2023-05-07T14:58:04;7.35;;;1.00;;
27722;SDS011;15123;-37.794;175.246;2023-05-07T15:00:36;6.22;;;1.08;;
27722;SDS011;15123;-37.794;175.246;2023-05-07T15:03:09;7.38;;;0.95;;
27722;SDS011;15123;-37.794;175.246;2023-05-07T15:05:44;4.60;;;0.80;;
27722;SDS011;15123;-37.794;175.246;2023-05-07T15:08:16;4.85;;;0.80;;
27722;SDS011;15123;-37.794;175.246;2023-05-07T15:10:48;6.85;;;0.80;;
27722;SDS011;15123;-37.794;175.246;2023-05-07T15:15:50;6.43;;;0.85;;
27722;SDS011;15123;-37.794;175.246;2023-05-07T15:18:23;7.03;;;1.02;;
27722;SDS011;15123;-37.794;175.246;2023-05-07T15:20:55;7.10;;;0.82;;
27722;SDS011;15123;-37.794;175.246;2023-05-07T15:23:28;6.57;;;0.90;;
27722;SDS011;15123;-37.794;175.246;2023-05-07T15:26:00;7.13;;;1.00;;
27722;SDS011;15123;-37.794;175.246;2023-05-07T15:28:34;5.93;;;0.70;;
27722;SDS011;15123;-37.794;175.246;2023-05-07T15:31:08;4.35;;;0.80;;
27722;SDS011;15123;-37.794;175.246;2023-05-07T15:33:44;5.70;;;0.73;;
27722;SDS011;15123;-37.794;175.246;2023-05-07T15:36:19;5.97;;;0.77;;
27722;SDS011;15123;-37.794;175.246;2023-05-07T15:38:51;6.72;;;0.90;;
27722;SDS011;15123;-37.794;175.246;2023-05-07T15:41:22;7.13;;;0.80;;
27722;SDS011;15123;-37.794;175.246;2023-05-07T15:43:55;5.38;;;0.70;;
27722;SDS011;15123;-37.794;175.246;2023-05-07T15:49:03;5.97;;;0.90;;
27722;SDS011;15123;-37.794;175.246;2023-05-07T15:51:59;5.38;;;0.73;;
27722;SDS011;15123;-37.794;175.246;2023-05-07T15:54:31;2.95;;;0.55;;
27722;SDS011;15123;-37.794;175.246;2023-05-07T15:59:41;6.60;;;0.77;;
27722;SDS011;15123;-37.794;175.246;2023-05-07T16:02:12;5.38;;;0.63;;
27722;SDS011;15123;-37.794;175.246;2023-05-07T16:04:44;4.30;;;0.88;;
27722;SDS011;15123;-37.794;175.246;2023-05-07T16:07:15;5.18;;;0.80;;
27722;SDS011;15123;-37.794;175.246;2023-05-07T16:09:50;6.25;;;0.70;;
27722;SDS011;15123;-37.794;175.246;2023-05-07T16:12:21;6.13;;;0.90;;
27722;SDS011;15123;-37.794;175.246;2023-05-07T16:14:53;5.90;;;0.65;;
27722;SDS011;15123;-37.794;175.246;2023-05-07T16:17:24;5.43;;;0.80;;
27722;SDS011;15123;-37.794;175.246;2023-05-07T16:19:56;4.18;;;0.60;;
27722;SDS011;15123;-37.794;175.246;2023-05-07T16:22:31;8.10;;;0.88;;
27722;SDS011;15123;-37.794;175.246;2023-05-07T16:25:03;6.45;;;0.80;;
27722;SDS011;15123;-37.794;175.246;2023-05-07T16:27:34;9.82;;;1.00;;